createdAt,value
2018-09-14T00:02:08.883Z,98287.73
2018-09-14T00:04:37.193Z,98278.64
2018-09-14T00:07:05.543Z,98279.47
2018-09-14T00:09:33.780Z,98278.99
2018-09-14T00:12:02.064Z,98274.92
2018-09-14T00:14:30.257Z,98277.36
2018-09-14T00:16:58.469Z,98278.80
2018-09-14T00:19:26.670Z,98267.11
2018-09-14T00:21:54.969Z,98274.53
2018-09-14T00:24:23.169Z,98274.56
2018-09-14T00:26:51.493Z,98273.81
2018-09-14T00:29:19.761Z,98274.53
2018-09-14T00:31:48.073Z,98273.22
2018-09-14T00:34:16.325Z,98279.95
2018-09-14T00:36:44.633Z,98276.79
2018-09-14T00:39:12.912Z,98276.97
2018-09-14T00:41:41.122Z,98274.89
2018-09-14T00:44:09.413Z,98274.20
2018-09-14T00:46:37.681Z,98272.03
2018-09-14T00:49:05.966Z,98272.48
2018-09-14T00:51:34.278Z,98268.16
2018-09-14T00:54:02.561Z,98271.77
2018-09-14T00:56:30.821Z,98265.92
2018-09-14T00:58:59.197Z,98269.70
2018-09-14T01:01:27.429Z,98270.29
2018-09-14T01:03:55.770Z,98271.56
2018-09-14T01:06:24.019Z,98268.56
2018-09-14T01:08:52.274Z,98274.52
2018-09-14T01:11:20.569Z,98269.83
2018-09-14T01:13:48.889Z,98273.16
2018-09-14T01:16:17.267Z,98274.34
2018-09-14T01:18:45.457Z,98268.80
2018-09-14T01:21:13.733Z,98267.32
2018-09-14T01:23:41.914Z,98259.16
2018-09-14T01:26:11.606Z,98266.21
2018-09-14T01:28:39.812Z,98263.80
2018-09-14T01:31:08.030Z,98259.25
2018-09-14T01:33:36.306Z,98269.27
2018-09-14T01:36:09.946Z,98266.00
2018-09-14T01:38:38.138Z,98265.47
2018-09-14T01:41:06.874Z,98262.74
2018-09-14T01:43:35.079Z,98259.57
2018-09-14T01:46:03.277Z,98260.17
2018-09-14T01:48:31.549Z,98265.07
2018-09-14T01:50:59.765Z,98261.38
2018-09-14T01:53:27.986Z,98261.83
2018-09-14T01:55:56.221Z,98266.67
2018-09-14T01:58:24.430Z,98263.48
2018-09-14T02:00:52.625Z,98263.76
2018-09-14T02:03:20.849Z,98261.98
2018-09-14T02:05:49.061Z,98249.79
2018-09-14T02:08:17.317Z,98258.19
2018-09-14T02:10:45.498Z,98253.94
2018-09-14T02:13:13.759Z,98250.23
2018-09-14T02:15:41.937Z,98246.06
2018-09-14T02:18:10.141Z,98246.31
2018-09-14T02:20:38.382Z,98235.50
2018-09-14T02:23:06.610Z,98231.39
2018-09-14T02:25:34.845Z,98235.38
2018-09-14T02:28:03.073Z,98233.45
2018-09-14T02:30:31.414Z,98215.45
2018-09-14T02:32:59.613Z,98233.59
2018-09-14T02:35:27.798Z,98231.67
2018-09-14T02:37:55.993Z,98230.57
2018-09-14T02:40:24.299Z,98232.99
2018-09-14T02:42:52.498Z,98232.99
2018-09-14T02:45:20.738Z,98229.33
2018-09-14T02:47:49.029Z,98230.30
2018-09-14T02:50:17.244Z,98228.72
2018-09-14T02:52:45.549Z,98220.66
2018-09-14T02:55:13.822Z,98231.46
2018-09-14T02:57:42.115Z,98232.13
2018-09-14T03:00:10.590Z,98232.20
2018-09-14T03:02:38.810Z,98232.25
2018-09-14T03:05:07.090Z,98217.91
2018-09-14T03:07:35.402Z,98226.56
2018-09-14T03:10:03.731Z,98224.56
2018-09-14T03:12:31.935Z,98228.97
2018-09-14T03:15:00.262Z,98227.12
2018-09-14T03:17:28.529Z,98228.91
2018-09-14T03:19:56.713Z,98219.23
2018-09-14T03:22:25.025Z,98228.44
2018-09-14T03:24:54.164Z,98231.66
2018-09-14T03:27:22.372Z,98228.88
2018-09-14T03:29:50.573Z,98234.47
2018-09-14T03:32:18.831Z,98232.50
2018-09-14T03:34:47.097Z,98240.25
2018-09-14T03:37:15.302Z,98235.03
2018-09-14T03:39:43.533Z,98219.91
2018-09-14T03:42:11.766Z,98231.87
2018-09-14T03:44:41.162Z,98240.66
2018-09-14T03:47:09.393Z,98240.47
2018-09-14T03:49:37.610Z,98241.30
2018-09-14T03:52:05.909Z,98243.64
2018-09-14T03:54:34.351Z,98240.92
2018-09-14T03:57:05.332Z,98238.56
2018-09-14T03:59:35.616Z,98237.05
2018-09-14T04:02:04.361Z,98233.98
2018-09-14T04:04:32.557Z,98233.52
2018-09-14T04:07:01.266Z,98232.56
2018-09-14T04:09:29.532Z,98233.06
2018-09-14T04:11:58.547Z,98228.68
2018-09-14T04:14:26.841Z,98227.95
2018-09-14T04:16:55.578Z,98226.16
2018-09-14T04:19:23.781Z,98233.11
2018-09-14T04:21:52.013Z,98229.77
2018-09-14T04:24:20.520Z,98236.59
2018-09-14T04:26:48.841Z,98231.08
2018-09-14T04:29:17.117Z,98236.38
2018-09-14T04:31:46.130Z,98234.75
2018-09-14T04:34:14.335Z,98227.48
2018-09-14T04:36:42.638Z,98235.54
2018-09-14T04:39:11.342Z,98239.28
2018-09-14T04:41:39.769Z,98216.67
2018-09-14T04:44:07.990Z,98235.77
2018-09-14T04:46:36.274Z,98233.05
2018-09-14T04:49:04.585Z,98239.34
2018-09-14T04:51:32.915Z,98239.45
2018-09-14T04:54:01.097Z,98246.58
2018-09-14T04:56:29.301Z,98248.67
2018-09-14T04:58:57.494Z,98244.80
2018-09-14T05:01:25.880Z,98249.01
2018-09-14T05:03:54.103Z,98253.55
2018-09-14T05:06:22.311Z,98250.55
2018-09-14T05:08:50.598Z,98248.64
2018-09-14T05:11:18.859Z,98254.87
2018-09-14T05:13:47.386Z,98262.50
2018-09-14T05:16:15.774Z,98255.45
2018-09-14T05:18:43.998Z,98260.69
2018-09-14T05:21:12.618Z,98262.56
2018-09-14T05:23:40.940Z,98259.58
2018-09-14T05:26:09.162Z,98264.43
2018-09-14T05:28:37.377Z,98267.23
2018-09-14T05:31:05.618Z,98274.94
2018-09-14T05:33:33.830Z,98272.95
2018-09-14T05:36:02.046Z,98275.58
2018-09-14T05:38:30.246Z,98277.05
2018-09-14T05:40:58.516Z,98275.48
2018-09-14T05:43:26.711Z,98274.67
2018-09-14T05:45:54.952Z,98279.19
2018-09-14T05:48:23.145Z,98283.58
2018-09-14T05:50:51.378Z,98284.48
2018-09-14T05:53:19.577Z,98270.56
2018-09-14T05:55:47.784Z,98285.83
2018-09-14T05:58:16.089Z,98300.95
2018-09-14T06:00:44.425Z,98296.56
2018-09-14T06:03:12.645Z,98300.50
2018-09-14T06:05:40.893Z,98304.78
2018-09-14T06:08:09.101Z,98304.05
2018-09-14T06:10:37.335Z,98305.88
2018-09-14T06:13:05.692Z,98290.14
2018-09-14T06:15:33.907Z,98307.51
2018-09-14T06:18:02.157Z,98304.84
2018-09-14T06:20:30.434Z,98309.57
2018-09-14T06:22:58.684Z,98303.48
2018-09-14T06:25:26.891Z,98305.78
2018-09-14T06:27:55.131Z,98311.26
2018-09-14T06:30:23.362Z,98308.91
2018-09-14T06:32:51.526Z,98308.94
2018-09-14T06:35:19.765Z,98310.23
2018-09-14T06:37:47.986Z,98308.00
2018-09-14T06:40:16.196Z,98310.55
2018-09-14T06:42:44.397Z,98304.34
2018-09-14T06:45:12.640Z,98305.51
2018-09-14T06:47:40.858Z,98309.72
2018-09-14T06:50:09.103Z,98308.97
2018-09-14T06:52:37.301Z,98305.10
2018-09-14T06:55:05.514Z,98303.72
2018-09-14T06:57:33.802Z,98302.44
2018-09-14T07:00:02.131Z,98303.10
2018-09-14T07:02:30.362Z,98304.94
2018-09-14T07:04:58.861Z,98306.36
2018-09-14T07:07:27.241Z,98302.55
2018-09-14T07:09:55.446Z,98302.25
2018-09-14T07:12:23.685Z,98313.14
2018-09-14T07:14:51.915Z,98304.66
2018-09-14T07:17:20.117Z,98307.66
2018-09-14T07:19:48.351Z,98313.31
2018-09-14T07:22:16.670Z,98312.78
2018-09-14T07:24:44.891Z,98319.66
2018-09-14T07:27:13.264Z,98319.17
2018-09-14T07:29:41.561Z,98318.36
2018-09-14T07:32:09.733Z,98325.25
2018-09-14T07:34:37.953Z,98328.12
2018-09-14T07:37:06.257Z,98334.51
2018-09-14T07:39:34.485Z,98326.80
2018-09-14T07:42:02.688Z,98339.72
2018-09-14T07:44:30.896Z,98339.52
2018-09-14T07:46:59.101Z,98334.27
2018-09-14T07:49:27.304Z,98332.71
2018-09-14T07:51:55.507Z,98336.32
2018-09-14T07:54:23.713Z,98337.09
2018-09-14T07:56:51.953Z,98337.10
2018-09-14T07:59:20.195Z,98332.69
2018-09-14T08:01:48.586Z,98339.81
2018-09-14T08:04:16.818Z,98344.48
2018-09-14T08:06:45.107Z,98339.10
2018-09-14T08:09:14.295Z,98341.28
2018-09-14T08:11:42.957Z,98343.33
2018-09-14T08:14:11.711Z,98346.05
2018-09-14T08:16:39.974Z,98352.08
2018-09-14T08:19:08.187Z,98354.66
2018-09-14T08:21:36.929Z,98351.01
2018-09-14T08:24:05.038Z,98355.39
2018-09-14T08:26:33.303Z,98349.81
2018-09-14T08:29:01.530Z,98356.88
2018-09-14T08:31:30.746Z,98362.08
2018-09-14T08:33:58.942Z,98363.86
2018-09-14T08:36:27.149Z,98364.88
2018-09-14T08:38:55.357Z,98366.03
2018-09-14T08:41:23.627Z,98367.00
2018-09-14T08:43:51.850Z,98372.96
2018-09-14T08:46:20.046Z,98374.80
2018-09-14T08:48:48.290Z,98373.23
2018-09-14T08:51:16.801Z,98370.17
2018-09-14T08:53:45.158Z,98375.09
2018-09-14T08:56:13.293Z,98375.30
2018-09-14T08:58:41.506Z,98376.96
2018-09-14T09:01:09.701Z,98380.41
2018-09-14T09:03:37.918Z,98385.91
2018-09-14T09:06:06.197Z,98379.33
2018-09-14T09:08:34.406Z,98384.64
2018-09-14T09:11:02.625Z,98380.44
2018-09-14T09:13:30.838Z,98379.88
2018-09-14T09:15:59.058Z,98383.55
2018-09-14T09:18:27.278Z,98377.27
2018-09-14T09:20:55.517Z,98384.25
2018-09-14T09:23:23.801Z,98385.55
2018-09-14T09:25:51.957Z,98379.77
2018-09-14T09:28:20.165Z,98384.95
2018-09-14T09:30:48.458Z,98384.03
2018-09-14T09:33:16.683Z,98384.30
2018-09-14T09:35:44.902Z,98382.71
2018-09-14T09:38:13.138Z,98385.72
2018-09-14T09:40:41.426Z,98387.60
2018-09-14T09:43:09.748Z,98382.78
2018-09-14T09:45:37.947Z,98382.49
2018-09-14T09:48:06.265Z,98379.52
2018-09-14T09:50:34.503Z,98381.78
2018-09-14T09:53:02.821Z,98378.11
2018-09-14T09:55:31.065Z,98380.18
2018-09-14T09:57:59.501Z,98379.48
2018-09-14T10:00:33.034Z,98376.90
2018-09-14T10:03:06.535Z,98379.30
2018-09-14T10:05:40.015Z,98377.87
2018-09-14T10:08:08.270Z,98377.80
2018-09-14T10:10:36.518Z,98376.48
2018-09-14T10:13:04.783Z,98374.56
2018-09-14T10:15:33.003Z,98377.45
2018-09-14T10:18:01.247Z,98379.78
2018-09-14T10:20:29.473Z,98378.33
2018-09-14T10:22:57.701Z,98381.27
2018-09-14T10:25:26.052Z,98381.70
2018-09-14T10:27:54.284Z,98382.01
2018-09-14T10:30:22.559Z,98385.00
2018-09-14T10:32:50.779Z,98385.83
2018-09-14T10:35:19.014Z,98384.08
2018-09-14T10:37:47.227Z,98389.73
2018-09-14T10:40:15.468Z,98381.12
2018-09-14T10:42:43.760Z,98377.37
2018-09-14T10:45:12.018Z,98378.61
2018-09-14T10:47:40.299Z,98375.84
2018-09-14T10:50:08.585Z,98372.28
2018-09-14T10:52:36.770Z,98371.58
2018-09-14T10:55:05.026Z,98371.55
2018-09-14T10:57:33.250Z,98363.16
2018-09-14T11:00:01.487Z,98373.87
2018-09-14T11:02:29.705Z,98362.91
2018-09-14T11:04:57.954Z,98365.20
2018-09-14T11:07:26.254Z,98363.91
2018-09-14T11:09:54.486Z,98362.92
2018-09-14T11:12:22.732Z,98364.51
2018-09-14T11:14:50.963Z,98367.61
2018-09-14T11:17:19.177Z,98361.91
2018-09-14T11:19:47.422Z,98362.48
2018-09-14T11:22:15.717Z,98355.77
2018-09-14T11:24:44.185Z,98355.23
2018-09-14T11:27:12.301Z,98351.16
2018-09-14T11:29:40.587Z,98354.04
2018-09-14T11:32:08.831Z,98353.07
2018-09-14T11:34:37.069Z,98345.31
2018-09-14T11:37:05.647Z,98340.59
2018-09-14T11:39:33.818Z,98345.61
2018-09-14T11:42:02.050Z,98345.02
2018-09-14T11:44:30.396Z,98333.59
2018-09-14T11:46:58.529Z,98336.34
2018-09-14T11:49:26.759Z,98337.82
2018-09-14T11:51:54.974Z,98326.97
2018-09-14T11:54:23.265Z,98333.02
2018-09-14T11:56:51.424Z,98325.58
2018-09-14T11:59:19.685Z,98332.35
2018-09-14T12:01:47.924Z,98328.22
2018-09-14T12:04:16.219Z,98329.16
2018-09-14T12:06:44.381Z,98331.03
2018-09-14T12:09:12.953Z,98330.41
2018-09-14T12:11:41.723Z,98332.73
2018-09-14T12:14:10.283Z,98325.41
2018-09-14T12:16:38.470Z,98324.80
2018-09-14T12:19:06.813Z,98329.19
2018-09-14T12:21:35.018Z,98319.26
2018-09-14T12:24:03.222Z,98317.94
2018-09-14T12:26:31.433Z,98309.30
2018-09-14T12:28:59.660Z,98306.41
2018-09-14T12:31:27.879Z,98310.35
2018-09-14T12:33:56.114Z,98309.20
2018-09-14T12:36:24.373Z,98313.27
2018-09-14T12:38:52.593Z,98308.13
2018-09-14T12:41:20.858Z,98304.36
2018-09-14T12:43:49.096Z,98303.53
2018-09-14T12:46:17.287Z,98297.20
2018-09-14T12:48:45.526Z,98292.61
2018-09-14T12:51:13.762Z,98299.20
2018-09-14T12:53:42.115Z,98299.75
2018-09-14T12:56:10.435Z,98294.53
2018-09-14T12:58:38.637Z,98298.96
2018-09-14T13:01:06.869Z,98296.36
2018-09-14T13:03:37.452Z,98289.91
2018-09-14T13:06:05.650Z,98293.61
2018-09-14T13:08:33.877Z,98295.22
2018-09-14T13:11:02.085Z,98289.88
2018-09-14T13:13:30.301Z,98296.55
2018-09-14T13:15:58.505Z,98291.72
2018-09-14T13:18:26.745Z,98292.58
2018-09-14T13:20:54.949Z,98289.00
2018-09-14T13:23:23.165Z,98288.58
2018-09-14T13:25:51.373Z,98290.55
2018-09-14T13:28:19.625Z,98288.56
2018-09-14T13:30:47.831Z,98284.72
2018-09-14T13:33:16.046Z,98286.31
2018-09-14T13:35:44.258Z,98280.02
2018-09-14T13:38:12.464Z,98276.88
2018-09-14T13:40:40.678Z,98266.96
2018-09-14T13:43:08.889Z,98271.77
2018-09-14T13:45:37.109Z,98261.64
2018-09-14T13:48:05.310Z,98262.06
2018-09-14T13:50:33.537Z,98259.50
2018-09-14T13:53:01.790Z,98265.88
2018-09-14T13:55:30.014Z,98260.97
2018-09-14T13:57:58.346Z,98259.97
2018-09-14T14:00:26.546Z,98262.48
2018-09-14T14:02:54.801Z,98262.33
2018-09-14T14:05:23.102Z,98262.45
2018-09-14T14:07:51.305Z,98256.17
2018-09-14T14:10:19.605Z,98255.02
2018-09-14T14:12:47.783Z,98256.55
2018-09-14T14:15:16.023Z,98250.13
2018-09-14T14:17:44.302Z,98252.42
2018-09-14T14:20:12.649Z,98253.97
2018-09-14T14:22:40.850Z,98253.97
2018-09-14T14:25:09.204Z,98243.56
2018-09-14T14:27:37.412Z,98243.78
2018-09-14T14:30:05.626Z,98248.52
2018-09-14T14:32:33.826Z,98243.78
2018-09-14T14:35:02.034Z,98242.48
2018-09-14T14:37:30.353Z,98245.03
2018-09-14T14:39:58.639Z,98247.05
2018-09-14T14:42:26.855Z,98238.63
2018-09-14T14:44:55.275Z,98232.74
2018-09-14T14:47:23.501Z,98236.72
2018-09-14T14:49:51.753Z,98245.12
2018-09-14T14:52:20.043Z,98246.77
2018-09-14T14:54:48.276Z,98246.67
2018-09-14T14:57:16.517Z,98238.61
2018-09-14T14:59:44.757Z,98237.73
2018-09-14T15:02:12.925Z,98237.83
2018-09-14T15:04:41.149Z,98237.70
2018-09-14T15:07:09.445Z,98235.86
2018-09-14T15:09:37.662Z,98242.75
2018-09-14T15:12:05.877Z,98231.73
2018-09-14T15:14:34.181Z,98235.86
2018-09-14T15:17:02.381Z,98232.98
2018-09-14T15:19:30.659Z,98236.25
2018-09-14T15:21:58.857Z,98237.26
2018-09-14T15:24:27.070Z,98241.70
2018-09-14T15:26:55.302Z,98238.31
2018-09-14T15:29:23.506Z,98239.41
2018-09-14T15:31:51.733Z,98236.69
2018-09-14T15:34:20.094Z,98233.09
2018-09-14T15:36:48.309Z,98238.66
2018-09-14T15:39:16.551Z,98238.69
2018-09-14T15:41:44.737Z,98241.93
2018-09-14T15:44:12.973Z,98238.11
2018-09-14T15:46:42.966Z,98226.08
2018-09-14T15:49:11.177Z,98234.17
2018-09-14T15:51:39.423Z,98237.56
2018-09-14T15:54:07.833Z,98234.08
2018-09-14T15:56:36.030Z,98236.48
2018-09-14T15:59:04.351Z,98238.77
2018-09-14T16:01:32.550Z,98240.20
2018-09-14T16:04:00.771Z,98240.86
2018-09-14T16:06:28.989Z,98238.95
2018-09-14T16:08:57.230Z,98249.36
2018-09-14T16:11:25.602Z,98250.37
2018-09-14T16:13:53.882Z,98245.25
2018-09-14T16:16:22.089Z,98247.37
2018-09-14T16:18:50.339Z,98240.75
2018-09-14T16:21:18.505Z,98245.65
2018-09-14T16:23:46.773Z,98244.09
2018-09-14T16:26:15.069Z,98245.36
2018-09-14T16:28:43.309Z,98250.63
2018-09-14T16:31:11.502Z,98254.45
2018-09-14T16:33:39.758Z,98253.78
2018-09-14T16:36:07.951Z,98251.83
2018-09-14T16:38:39.058Z,98254.35
2018-09-14T16:41:07.391Z,98255.27
2018-09-14T16:43:35.595Z,98246.02
2018-09-14T16:46:03.918Z,98245.59
2018-09-14T16:48:32.161Z,98249.05
2018-09-14T16:51:00.461Z,98243.64
2018-09-14T16:53:28.733Z,98243.84
2018-09-14T16:55:56.937Z,98241.66
2018-09-14T16:58:25.149Z,98241.11
2018-09-14T17:00:53.437Z,98240.76
2018-09-14T17:03:21.699Z,98237.69
2018-09-14T17:05:49.841Z,98239.67
2018-09-14T17:08:18.127Z,98244.46
2018-09-14T17:10:46.366Z,98249.75
2018-09-14T17:13:14.569Z,98253.73
2018-09-14T17:15:42.765Z,98249.49
2018-09-14T17:18:10.970Z,98261.50
2018-09-14T17:20:39.166Z,98258.26
2018-09-14T17:23:12.365Z,98260.67
2018-09-14T17:25:55.586Z,98264.16
2018-09-14T17:28:23.926Z,98264.94
2018-09-14T17:30:52.124Z,98264.50
2018-09-14T17:33:20.345Z,98268.23
2018-09-14T17:35:48.537Z,98262.59
2018-09-14T17:38:16.809Z,98262.91
2018-09-14T17:41:28.194Z,98275.36
2018-09-14T17:43:56.585Z,98278.74
2018-09-14T17:46:24.826Z,98280.95
2018-09-14T17:48:53.030Z,98285.73
2018-09-14T17:51:21.256Z,98293.61
2018-09-14T17:53:49.493Z,98291.77
2018-09-14T17:56:17.734Z,98292.64
2018-09-14T17:58:46.009Z,98288.59
2018-09-14T18:01:14.228Z,98292.51
2018-09-14T18:03:42.447Z,98288.98
2018-09-14T18:06:10.641Z,98290.53
2018-09-14T18:08:38.842Z,98294.73
2018-09-14T18:11:07.109Z,98295.49
2018-09-14T18:13:35.347Z,98301.95
2018-09-14T18:16:03.627Z,98310.06
2018-09-14T18:18:31.925Z,98312.92
2018-09-14T18:21:00.157Z,98306.69
2018-09-14T18:23:28.385Z,98314.95
2018-09-14T18:25:56.590Z,98317.50
2018-09-14T18:28:24.810Z,98318.47
2018-09-14T18:30:53.022Z,98326.27
2018-09-14T18:33:21.237Z,98318.39
2018-09-14T18:35:49.440Z,98321.34
2018-09-14T18:38:17.661Z,98321.66
2018-09-14T18:40:45.845Z,98322.19
2018-09-14T18:43:14.116Z,98323.00
2018-09-14T18:45:42.321Z,98321.57
2018-09-14T18:48:10.551Z,98315.59
2018-09-14T18:50:38.906Z,98318.83
2018-09-14T18:53:07.225Z,98322.59
2018-09-14T18:55:35.466Z,98321.25
2018-09-14T18:58:03.735Z,98325.78
2018-09-14T19:00:32.030Z,98332.91
2018-09-14T19:03:00.352Z,98337.26
2018-09-14T19:05:28.585Z,98336.42
2018-09-14T19:07:56.858Z,98341.34
2018-09-14T19:10:25.287Z,98335.02
2018-09-14T19:12:53.582Z,98339.73
2018-09-14T19:15:21.933Z,98345.03
2018-09-14T19:17:50.386Z,98347.61
2018-09-14T19:20:18.610Z,98350.25
2018-09-14T19:22:46.997Z,98348.20
2018-09-14T19:25:15.300Z,98353.09
2018-09-14T19:27:43.578Z,98348.08
2018-09-14T19:30:12.030Z,98351.39
2018-09-14T19:32:40.277Z,98350.50
2018-09-14T19:35:08.573Z,98355.80
2018-09-14T19:37:36.786Z,98352.72
2018-09-14T19:40:05.040Z,98356.92
2018-09-14T19:42:33.366Z,98352.22
2018-09-14T19:45:01.570Z,98356.34
2018-09-14T19:47:29.793Z,98345.81
2018-09-14T19:49:58.132Z,98354.50
2018-09-14T19:52:26.369Z,98353.59
2018-09-14T19:54:54.754Z,98354.31
2018-09-14T19:57:23.109Z,98353.55
2018-09-14T19:59:51.609Z,98348.80
2018-09-14T20:02:19.845Z,98351.33
2018-09-14T20:04:48.247Z,98351.45
2018-09-14T20:07:16.534Z,98350.45
2018-09-14T20:09:44.789Z,98352.09
2018-09-14T20:12:13.102Z,98349.80
2018-09-14T20:14:41.377Z,98351.98
2018-09-14T20:17:09.734Z,98351.55
2018-09-14T20:19:37.960Z,98356.48
2018-09-14T20:22:06.674Z,98354.71
2018-09-14T20:24:34.958Z,98355.22
2018-09-14T20:27:03.257Z,98356.11
2018-09-14T20:29:31.511Z,98361.86
2018-09-14T20:31:59.821Z,98355.02
2018-09-14T20:34:28.137Z,98353.25
2018-09-14T20:36:56.425Z,98358.62
2018-09-14T20:39:24.706Z,98356.28
2018-09-14T20:41:52.953Z,98351.34
2018-09-14T20:44:21.298Z,98353.41
2018-09-14T20:46:49.653Z,98348.10
2018-09-14T20:49:17.866Z,98348.17
2018-09-14T20:51:46.224Z,98343.31
2018-09-14T20:54:14.313Z,98344.59
2018-09-14T20:56:42.555Z,98343.98
2018-09-14T20:59:10.786Z,98344.14
2018-09-14T21:01:39.101Z,98349.56
2018-09-14T21:04:07.612Z,98354.95
2018-09-14T21:06:35.809Z,98342.06
2018-09-14T21:09:05.506Z,98345.23
2018-09-14T21:11:33.829Z,98349.22
2018-09-14T21:14:02.021Z,98345.40
2018-09-14T21:16:30.270Z,98346.63
2018-09-14T21:18:58.496Z,98346.63
2018-09-14T21:21:26.757Z,98348.25
2018-09-14T21:23:55.063Z,98350.36
2018-09-14T21:26:23.353Z,98347.73
2018-09-14T21:28:51.641Z,98350.11
2018-09-14T21:31:19.986Z,98352.30
2018-09-14T21:33:48.179Z,98361.11
2018-09-14T21:36:16.507Z,98355.66
2018-09-14T21:38:44.777Z,98358.37
2018-09-14T21:41:13.039Z,98364.03
2018-09-14T21:43:41.333Z,98362.34
2018-09-14T21:46:09.610Z,98357.52
2018-09-14T21:48:37.925Z,98360.53
2018-09-14T21:51:06.386Z,98360.42
2018-09-14T21:53:34.745Z,98362.34
2018-09-14T21:56:02.918Z,98372.73
2018-09-14T21:58:31.169Z,98373.72
2018-09-14T22:01:04.898Z,98377.41
2018-09-14T22:03:33.177Z,98375.89
2018-09-14T22:06:01.456Z,98385.86
2018-09-14T22:08:29.745Z,98380.57
2018-09-14T22:10:58.027Z,98376.52
2018-09-14T22:13:26.389Z,98373.75
2018-09-14T22:15:54.610Z,98370.87
2018-09-14T22:18:22.921Z,98375.78
2018-09-14T22:20:51.241Z,98372.12
2018-09-14T22:23:19.508Z,98375.04
2018-09-14T22:25:47.781Z,98366.98
2018-09-14T22:28:16.080Z,98367.85
2018-09-14T22:30:44.344Z,98369.30
2018-09-14T22:33:12.633Z,98375.78
2018-09-14T22:35:40.929Z,98380.94
2018-09-14T22:38:09.138Z,98388.50
2018-09-14T22:40:37.336Z,98384.71
2018-09-14T22:43:05.622Z,98389.31
2018-09-14T22:48:12.533Z,98402.25
2018-09-14T22:50:40.821Z,98400.06
2018-09-14T22:53:09.085Z,98403.39
2018-09-14T22:55:37.370Z,98412.76
2018-09-14T22:58:07.263Z,98408.86
2018-09-14T23:00:40.962Z,98410.47
2018-09-14T23:03:09.238Z,98410.99
2018-09-14T23:05:37.493Z,98402.41
2018-09-14T23:08:05.845Z,98409.73
2018-09-14T23:10:34.087Z,98407.51
2018-09-14T23:13:02.400Z,98405.27
2018-09-14T23:15:30.665Z,98405.30
2018-09-14T23:17:59.120Z,98406.24
2018-09-14T23:20:27.318Z,98412.16
2018-09-14T23:22:55.629Z,98408.66
2018-09-14T23:25:23.917Z,98405.09
2018-09-14T23:27:52.441Z,98410.99
2018-09-14T23:30:20.682Z,98412.62
2018-09-14T23:32:48.997Z,98413.38
2018-09-14T23:35:17.254Z,98401.77
2018-09-14T23:37:45.560Z,98412.27
2018-09-14T23:40:13.840Z,98407.47
2018-09-14T23:42:42.151Z,98405.13
2018-09-14T23:45:10.429Z,98410.72
2018-09-14T23:47:38.713Z,98410.39
2018-09-14T23:50:06.925Z,98411.66
2018-09-14T23:52:35.166Z,98409.57
2018-09-14T23:55:03.597Z,98409.08
2018-09-14T23:57:31.846Z,98414.41
